createdAt,value
2023-01-17T00:00:44.876Z,3.90
2023-01-17T00:05:44.192Z,3.80
2023-01-17T00:10:44.105Z,4.30
2023-01-17T00:15:44.042Z,4.10
2023-01-17T00:20:43.896Z,4.40
2023-01-17T00:25:43.943Z,4.00
2023-01-17T00:30:43.885Z,4.10
2023-01-17T00:35:43.727Z,4.50
2023-01-17T00:40:43.704Z,4.50
2023-01-17T00:45:43.631Z,4.40
2023-01-17T00:50:43.602Z,4.70
2023-01-17T00:55:43.481Z,4.50
2023-01-17T01:00:43.444Z,4.40
2023-01-17T01:05:43.328Z,4.60
2023-01-17T01:10:43.406Z,4.00
2023-01-17T01:15:43.190Z,3.90
2023-01-17T01:20:43.144Z,3.60
2023-01-17T01:25:43.121Z,3.50
2023-01-17T01:30:43.049Z,3.10
2023-01-17T01:35:43.003Z,2.60
2023-01-17T01:40:42.937Z,1.40
2023-01-17T01:45:42.920Z,1.10
2023-01-17T01:50:42.751Z,1.10
2023-01-17T01:55:42.766Z,0.80
2023-01-17T02:00:42.632Z,0.90
2023-01-17T02:05:42.637Z,0.80
2023-01-17T02:10:42.480Z,1.00
2023-01-17T02:15:42.444Z,0.80
2023-01-17T02:20:42.396Z,0.80
2023-01-17T02:25:43.601Z,0.80
2023-01-17T02:30:46.642Z,0.70
2023-01-17T02:35:42.172Z,0.60
2023-01-17T02:40:42.223Z,0.50
2023-01-17T02:45:42.065Z,0.50
2023-01-17T02:50:42.020Z,0.50
2023-01-17T02:55:41.893Z,0.50
2023-01-17T03:00:41.861Z,0.50
2023-01-17T03:05:41.851Z,0.30
2023-01-17T03:10:41.713Z,0.30
2023-01-17T03:15:41.722Z,0.20
2023-01-17T03:20:41.571Z,0.20
2023-01-17T03:25:41.486Z,0.20
2023-01-17T03:30:41.516Z,0.20
2023-01-17T03:35:41.377Z,0.20
2023-01-17T03:40:41.316Z,0.20
2023-01-17T03:45:41.275Z,0.20
2023-01-17T03:50:41.165Z,0.20
2023-01-17T03:55:41.120Z,0.20
2023-01-17T04:00:41.086Z,0.20
2023-01-17T04:05:41.039Z,0.20
2023-01-17T04:10:40.978Z,0.20
2023-01-17T04:15:40.920Z,0.30
2023-01-17T04:20:40.811Z,0.60
2023-01-17T04:25:40.724Z,0.40
2023-01-17T04:30:40.731Z,0.40
2023-01-17T04:35:40.588Z,0.40
2023-01-17T04:40:40.533Z,0.50
2023-01-17T04:45:40.485Z,0.40
2023-01-17T04:50:40.429Z,0.40
2023-01-17T04:55:40.362Z,0.50
2023-01-17T05:00:40.330Z,0.60
2023-01-17T05:05:40.238Z,0.50
2023-01-17T05:10:40.167Z,0.70
2023-01-17T05:15:40.138Z,0.50
2023-01-17T05:20:40.035Z,0.50
2023-01-17T05:25:40.029Z,0.50
2023-01-17T05:30:39.928Z,0.50
2023-01-17T05:35:39.840Z,0.50
2023-01-17T05:40:39.748Z,0.40
2023-01-17T05:45:39.664Z,0.50
2023-01-17T05:50:39.621Z,0.40
2023-01-17T05:55:39.540Z,0.50
2023-01-17T06:00:39.494Z,0.60
2023-01-17T06:05:39.529Z,0.60
2023-01-17T06:10:39.410Z,0.60
2023-01-17T06:15:39.405Z,0.50
2023-01-17T06:20:39.232Z,0.70
2023-01-17T06:25:39.213Z,0.60
2023-01-17T06:30:39.135Z,0.60
2023-01-17T06:35:39.095Z,0.50
2023-01-17T06:40:38.957Z,0.50
2023-01-17T06:45:38.901Z,0.70
2023-01-17T06:50:38.840Z,0.90
2023-01-17T06:55:38.740Z,0.60
2023-01-17T07:00:40.691Z,0.80
2023-01-17T07:05:38.674Z,0.80
2023-01-17T07:10:38.546Z,0.70
2023-01-17T07:15:38.513Z,0.70
2023-01-17T07:20:38.441Z,0.60
2023-01-17T07:25:38.350Z,0.60
2023-01-17T07:30:38.292Z,0.60
2023-01-17T07:35:38.501Z,0.80
2023-01-17T07:40:42.076Z,0.80
2023-01-17T07:45:38.338Z,0.90
2023-01-17T07:50:38.003Z,0.70
2023-01-17T07:55:38.201Z,0.60
2023-01-17T08:00:37.964Z,0.70
2023-01-17T08:05:37.849Z,0.90
2023-01-17T08:10:37.821Z,0.70
2023-01-17T08:15:37.666Z,0.70
2023-01-17T08:20:37.692Z,0.80
2023-01-17T08:25:37.618Z,0.90
2023-01-17T08:30:37.483Z,0.70
2023-01-17T08:35:37.399Z,0.90
2023-01-17T08:40:40.029Z,0.80
2023-01-17T08:45:37.375Z,0.90
2023-01-17T08:50:37.247Z,1.10
2023-01-17T08:55:37.143Z,1.20
2023-01-17T09:00:37.065Z,1.00
2023-01-17T09:05:37.003Z,0.90
2023-01-17T09:10:36.990Z,1.00
2023-01-17T09:15:36.878Z,0.90
2023-01-17T09:20:36.809Z,1.00
2023-01-17T09:25:36.796Z,1.10
2023-01-17T09:30:37.650Z,1.10
2023-01-17T09:35:36.655Z,1.00
2023-01-17T09:40:36.570Z,1.10
2023-01-17T09:45:36.535Z,1.20
2023-01-17T09:50:36.430Z,1.10
2023-01-17T09:55:36.358Z,1.10
2023-01-17T10:00:36.306Z,0.90
2023-01-17T10:05:37.006Z,1.00
2023-01-17T10:10:36.211Z,1.00
2023-01-17T10:15:36.164Z,0.90
2023-01-17T10:20:36.377Z,0.90
2023-01-17T10:25:35.965Z,1.00
2023-01-17T10:30:35.992Z,0.80
2023-01-17T10:35:36.171Z,0.90
2023-01-17T10:40:35.784Z,1.00
2023-01-17T10:45:35.780Z,0.90
2023-01-17T10:50:35.660Z,0.70
2023-01-17T10:55:35.732Z,0.90
2023-01-17T11:00:35.585Z,0.80
2023-01-17T11:05:35.419Z,0.90
2023-01-17T11:10:35.421Z,0.90
2023-01-17T11:15:35.346Z,0.80
2023-01-17T11:20:35.275Z,0.90
2023-01-17T11:25:36.438Z,0.80
2023-01-17T11:30:35.124Z,0.70
2023-01-17T11:35:38.636Z,0.90
2023-01-17T11:40:36.954Z,0.70
2023-01-17T11:45:35.150Z,0.70
2023-01-17T11:50:34.858Z,0.70
2023-01-17T11:55:35.659Z,1.10
2023-01-17T12:00:34.727Z,0.80
2023-01-17T12:05:34.803Z,0.60
2023-01-17T12:10:34.644Z,0.90
2023-01-17T12:15:34.699Z,1.00
2023-01-17T12:20:34.440Z,0.90
2023-01-17T12:25:34.373Z,0.80
2023-01-17T12:30:34.320Z,0.80
2023-01-17T12:35:34.262Z,0.90
2023-01-17T12:40:34.192Z,1.10
2023-01-17T12:45:34.150Z,1.30
2023-01-17T12:50:34.067Z,0.80
2023-01-17T12:55:33.994Z,0.70
2023-01-17T13:00:33.986Z,1.00
2023-01-17T13:05:33.886Z,0.80
2023-01-17T13:10:33.786Z,0.90
2023-01-17T13:15:33.718Z,1.00
2023-01-17T13:20:33.655Z,1.10
2023-01-17T13:25:33.570Z,0.80
2023-01-17T13:30:33.525Z,1.00
2023-01-17T13:35:33.489Z,1.20
2023-01-17T13:40:33.693Z,0.90
2023-01-17T13:45:33.391Z,1.00
2023-01-17T13:50:33.275Z,1.10
2023-01-17T13:55:33.233Z,1.00
2023-01-17T14:00:33.251Z,1.10
2023-01-17T14:05:33.107Z,1.10
2023-01-17T14:10:33.007Z,1.10
2023-01-17T14:15:32.986Z,1.60
2023-01-17T14:20:32.909Z,2.20
2023-01-17T14:25:32.826Z,2.70
2023-01-17T14:30:32.734Z,2.50
2023-01-17T14:35:32.746Z,1.30
2023-01-17T14:40:32.649Z,1.20
2023-01-17T14:45:32.593Z,1.10
2023-01-17T14:50:32.527Z,1.20
2023-01-17T14:55:32.446Z,1.10
2023-01-17T15:00:32.404Z,1.20
2023-01-17T15:05:32.281Z,1.80
2023-01-17T15:10:32.315Z,1.70
2023-01-17T15:15:32.207Z,1.20
2023-01-17T15:20:32.124Z,1.20
2023-01-17T15:25:32.039Z,1.00
2023-01-17T15:30:32.008Z,1.30
2023-01-17T15:35:31.913Z,1.50
2023-01-17T15:40:31.843Z,1.30
2023-01-17T15:45:31.772Z,1.00
2023-01-17T15:50:31.709Z,1.30
2023-01-17T15:55:31.697Z,1.20
2023-01-17T16:00:31.597Z,1.60
2023-01-17T16:05:32.517Z,1.40
2023-01-17T16:10:31.446Z,1.60
2023-01-17T16:15:31.442Z,2.40
2023-01-17T16:20:31.385Z,1.90
2023-01-17T16:25:31.287Z,2.40
2023-01-17T16:30:31.322Z,2.30
2023-01-17T16:35:31.354Z,2.10
2023-01-17T16:40:31.094Z,2.50
2023-01-17T16:45:31.142Z,2.70
2023-01-17T16:50:30.919Z,7.10
2023-01-17T16:55:30.864Z,4.70
2023-01-17T17:00:30.824Z,6.20
2023-01-17T17:05:30.724Z,8.10
2023-01-17T17:10:30.770Z,6.10
2023-01-17T17:15:30.792Z,3.00
2023-01-17T17:20:30.607Z,10.00
2023-01-17T17:25:30.535Z,5.80
2023-01-17T17:30:30.419Z,15.00
2023-01-17T17:35:30.330Z,5.50
2023-01-17T17:40:30.407Z,5.80
2023-01-17T17:45:30.325Z,5.50
2023-01-17T17:50:30.231Z,6.00
2023-01-17T17:55:30.205Z,6.00
2023-01-17T18:00:30.072Z,6.20
2023-01-17T18:05:29.946Z,7.30
2023-01-17T18:10:29.995Z,4.20
2023-01-17T18:15:29.936Z,3.00
2023-01-17T18:20:29.765Z,3.00
2023-01-17T18:25:29.719Z,2.50
2023-01-17T18:30:29.693Z,2.20
2023-01-17T18:35:29.573Z,2.00
2023-01-17T18:40:29.562Z,2.10
2023-01-17T18:45:29.561Z,3.20
2023-01-17T18:50:29.456Z,3.40
2023-01-17T18:55:29.352Z,3.90
2023-01-17T19:00:29.351Z,4.80
2023-01-17T19:05:29.207Z,5.20
2023-01-17T19:10:29.163Z,5.90
2023-01-17T19:15:29.124Z,6.20
2023-01-17T19:20:29.019Z,6.70
2023-01-17T19:25:28.970Z,8.90
2023-01-17T19:30:28.929Z,6.70
2023-01-17T19:35:28.806Z,4.90
2023-01-17T19:40:28.849Z,7.30
2023-01-17T19:45:28.746Z,6.90
2023-01-17T19:50:28.643Z,5.40
2023-01-17T19:55:28.585Z,7.40
2023-01-17T20:00:30.415Z,7.40
2023-01-17T20:05:28.488Z,7.00
2023-01-17T20:10:28.462Z,6.30
2023-01-17T20:15:28.337Z,7.40
2023-01-17T20:20:28.266Z,7.10
2023-01-17T20:25:28.180Z,6.90
2023-01-17T20:30:28.190Z,6.50
2023-01-17T20:35:28.130Z,7.90
2023-01-17T20:40:28.047Z,7.80
2023-01-17T20:45:28.010Z,7.30
2023-01-17T20:50:27.907Z,9.10
2023-01-17T20:55:27.812Z,7.40
2023-01-17T21:00:27.804Z,8.50
2023-01-17T21:05:27.723Z,11.10
2023-01-17T21:10:27.664Z,9.10
2023-01-17T21:15:27.569Z,9.30
2023-01-17T21:20:27.560Z,8.50
2023-01-17T21:25:27.423Z,8.50
2023-01-17T21:30:27.375Z,8.30
2023-01-17T21:35:27.323Z,7.80
2023-01-17T21:40:27.215Z,7.80
2023-01-17T21:45:27.171Z,8.00
2023-01-17T21:50:33.264Z,8.00
2023-01-17T21:55:28.007Z,7.90
2023-01-17T22:00:27.030Z,8.50
2023-01-17T22:05:26.941Z,9.30
2023-01-17T22:10:26.860Z,7.70
2023-01-17T22:15:26.778Z,7.90
2023-01-17T22:20:26.784Z,7.00
2023-01-17T22:25:26.641Z,7.40
2023-01-17T22:30:26.604Z,6.90
2023-01-17T22:35:26.575Z,6.90
2023-01-17T22:40:26.491Z,7.50
2023-01-17T22:45:26.392Z,7.50
2023-01-17T22:50:26.518Z,7.30
2023-01-17T22:55:26.266Z,6.00
2023-01-17T23:00:26.268Z,5.40
2023-01-17T23:05:26.161Z,5.10
2023-01-17T23:10:26.127Z,5.60
2023-01-17T23:15:26.049Z,5.50
2023-01-17T23:20:25.979Z,5.40
2023-01-17T23:25:25.905Z,5.60
2023-01-17T23:30:25.841Z,5.40
2023-01-17T23:35:25.794Z,4.90
2023-01-17T23:40:25.722Z,4.40
2023-01-17T23:45:25.670Z,4.30
2023-01-17T23:50:25.592Z,4.80
2023-01-17T23:55:25.505Z,4.80
